Terminal Aerodrome Forecast
Issued by NWS

Home | Current Version | Previous Version | Text Only | Print | Product List | Glossary On
Versions: 1 2 3 4 5 6 7 8 9 10 11 12 13 14
000
FTUS41 KILN 131606 AAA
TAFLUK
TAF AMD
KLUK 131606Z 1316/1412 19014G22KT P6SM BKN080
     FM132200 22015G23KT P6SM OVC080
     FM140100 25017G27KT P6SM OVC045
     FM140800 30011KT P6SM OVC028=

USA.gov is the U.S. government's official web portal to all federal, state and local government web resources and services.